sensor_id;sensor_type;location;lat;lon;timestamp;P1;durP1;ratioP1;P2;durP2;ratioP2
71513;SDS011;59335;46.652;21.272;2024-01-11T00:01:46;26.13;;;17.60;;
71513;SDS011;59335;46.652;21.272;2024-01-11T00:04:50;24.55;;;16.73;;
71513;SDS011;59335;46.652;21.272;2024-01-11T00:07:53;24.05;;;16.20;;
71513;SDS011;59335;46.652;21.272;2024-01-11T00:10:56;25.98;;;16.38;;
71513;SDS011;59335;46.652;21.272;2024-01-11T00:13:59;22.20;;;15.80;;
71513;SDS011;59335;46.652;21.272;2024-01-11T00:17:01;24.63;;;16.23;;
71513;SDS011;59335;46.652;21.272;2024-01-11T00:20:04;25.50;;;16.85;;
71513;SDS011;59335;46.652;21.272;2024-01-11T00:23:08;24.08;;;16.23;;
71513;SDS011;59335;46.652;21.272;2024-01-11T00:26:14;23.15;;;16.13;;
71513;SDS011;59335;46.652;21.272;2024-01-11T00:29:17;25.87;;;16.57;;
71513;SDS011;59335;46.652;21.272;2024-01-11T00:32:20;23.48;;;15.93;;
71513;SDS011;59335;46.652;21.272;2024-01-11T00:35:23;23.17;;;16.20;;
71513;SDS011;59335;46.652;21.272;2024-01-11T00:38:26;22.85;;;15.57;;
71513;SDS011;59335;46.652;21.272;2024-01-11T00:41:29;23.42;;;15.35;;
71513;SDS011;59335;46.652;21.272;2024-01-11T00:44:32;23.40;;;15.50;;
71513;SDS011;59335;46.652;21.272;2024-01-11T00:47:35;26.27;;;16.08;;
71513;SDS011;59335;46.652;21.272;2024-01-11T00:50:38;22.83;;;15.65;;
71513;SDS011;59335;46.652;21.272;2024-01-11T00:53:42;20.80;;;15.18;;
71513;SDS011;59335;46.652;21.272;2024-01-11T00:56:45;21.40;;;15.35;;
71513;SDS011;59335;46.652;21.272;2024-01-11T00:59:48;23.77;;;15.70;;
71513;SDS011;59335;46.652;21.272;2024-01-11T01:02:50;23.27;;;14.95;;
71513;SDS011;59335;46.652;21.272;2024-01-11T01:05:53;21.70;;;15.18;;
71513;SDS011;59335;46.652;21.272;2024-01-11T01:08:56;20.90;;;14.70;;
71513;SDS011;59335;46.652;21.272;2024-01-11T01:11:59;22.10;;;15.32;;
71513;SDS011;59335;46.652;21.272;2024-01-11T01:15:01;20.60;;;13.87;;
71513;SDS011;59335;46.652;21.272;2024-01-11T01:18:05;21.80;;;14.43;;
71513;SDS011;59335;46.652;21.272;2024-01-11T01:21:08;21.05;;;14.68;;
71513;SDS011;59335;46.652;21.272;2024-01-11T01:24:11;20.88;;;14.60;;
71513;SDS011;59335;46.652;21.272;2024-01-11T01:27:13;22.13;;;15.43;;
71513;SDS011;59335;46.652;21.272;2024-01-11T01:30:16;21.20;;;14.43;;
71513;SDS011;59335;46.652;21.272;2024-01-11T01:33:19;19.83;;;13.70;;
71513;SDS011;59335;46.652;21.272;2024-01-11T01:36:22;21.50;;;14.80;;
71513;SDS011;59335;46.652;21.272;2024-01-11T01:39:25;20.45;;;14.48;;
71513;SDS011;59335;46.652;21.272;2024-01-11T01:42:28;21.02;;;14.80;;
71513;SDS011;59335;46.652;21.272;2024-01-11T01:45:30;20.53;;;14.17;;
71513;SDS011;59335;46.652;21.272;2024-01-11T01:48:33;20.35;;;14.05;;
71513;SDS011;59335;46.652;21.272;2024-01-11T01:51:38;21.95;;;14.52;;
71513;SDS011;59335;46.652;21.272;2024-01-11T01:54:41;20.80;;;13.95;;
71513;SDS011;59335;46.652;21.272;2024-01-11T01:57:44;19.05;;;14.05;;
71513;SDS011;59335;46.652;21.272;2024-01-11T02:00:50;19.80;;;13.50;;
71513;SDS011;59335;46.652;21.272;2024-01-11T02:03:54;19.88;;;14.05;;
71513;SDS011;59335;46.652;21.272;2024-01-11T02:06:57;21.65;;;14.52;;
71513;SDS011;59335;46.652;21.272;2024-01-11T02:10:01;19.63;;;13.20;;
71513;SDS011;59335;46.652;21.272;2024-01-11T02:13:06;21.40;;;14.30;;
71513;SDS011;59335;46.652;21.272;2024-01-11T02:16:13;20.13;;;13.00;;
71513;SDS011;59335;46.652;21.272;2024-01-11T02:19:17;18.88;;;13.25;;
71513;SDS011;59335;46.652;21.272;2024-01-11T02:22:22;20.13;;;14.15;;
71513;SDS011;59335;46.652;21.272;2024-01-11T02:25:29;19.55;;;13.52;;
71513;SDS011;59335;46.652;21.272;2024-01-11T02:28:32;19.38;;;13.00;;
71513;SDS011;59335;46.652;21.272;2024-01-11T02:31:35;19.87;;;12.97;;
71513;SDS011;59335;46.652;21.272;2024-01-11T02:34:38;19.35;;;12.95;;
71513;SDS011;59335;46.652;21.272;2024-01-11T02:37:41;21.50;;;13.75;;
71513;SDS011;59335;46.652;21.272;2024-01-11T02:40:44;18.85;;;12.75;;
71513;SDS011;59335;46.652;21.272;2024-01-11T02:43:48;21.65;;;13.98;;
71513;SDS011;59335;46.652;21.272;2024-01-11T02:46:51;21.50;;;13.50;;
71513;SDS011;59335;46.652;21.272;2024-01-11T02:49:54;20.98;;;13.10;;
71513;SDS011;59335;46.652;21.272;2024-01-11T02:52:58;20.05;;;13.90;;
71513;SDS011;59335;46.652;21.272;2024-01-11T02:56:01;19.63;;;12.95;;
71513;SDS011;59335;46.652;21.272;2024-01-11T02:59:05;19.83;;;13.20;;
71513;SDS011;59335;46.652;21.272;2024-01-11T03:02:07;20.40;;;14.10;;
71513;SDS011;59335;46.652;21.272;2024-01-11T03:05:10;19.27;;;12.82;;
71513;SDS011;59335;46.652;21.272;2024-01-11T03:08:13;20.27;;;14.32;;
71513;SDS011;59335;46.652;21.272;2024-01-11T03:11:16;19.42;;;13.07;;
71513;SDS011;59335;46.652;21.272;2024-01-11T03:14:19;17.92;;;12.95;;
71513;SDS011;59335;46.652;21.272;2024-01-11T03:17:22;19.20;;;12.80;;
71513;SDS011;59335;46.652;21.272;2024-01-11T03:20:25;18.05;;;12.25;;
71513;SDS011;59335;46.652;21.272;2024-01-11T03:23:28;18.25;;;13.05;;
71513;SDS011;59335;46.652;21.272;2024-01-11T03:26:31;18.90;;;13.07;;
71513;SDS011;59335;46.652;21.272;2024-01-11T03:29:35;18.45;;;12.98;;
71513;SDS011;59335;46.652;21.272;2024-01-11T03:32:38;19.07;;;13.30;;
71513;SDS011;59335;46.652;21.272;2024-01-11T03:35:42;19.55;;;12.75;;
71513;SDS011;59335;46.652;21.272;2024-01-11T03:38:46;18.05;;;12.82;;
71513;SDS011;59335;46.652;21.272;2024-01-11T03:41:53;18.38;;;12.55;;
71513;SDS011;59335;46.652;21.272;2024-01-11T03:44:56;19.83;;;13.02;;
71513;SDS011;59335;46.652;21.272;2024-01-11T03:47:59;18.27;;;12.50;;
71513;SDS011;59335;46.652;21.272;2024-01-11T03:51:02;18.58;;;12.38;;
71513;SDS011;59335;46.652;21.272;2024-01-11T03:54:04;20.33;;;13.15;;
71513;SDS011;59335;46.652;21.272;2024-01-11T03:57:07;20.02;;;13.02;;
71513;SDS011;59335;46.652;21.272;2024-01-11T04:00:10;17.40;;;12.00;;
71513;SDS011;59335;46.652;21.272;2024-01-11T04:03:13;18.63;;;12.20;;
71513;SDS011;59335;46.652;21.272;2024-01-11T04:06:22;18.15;;;11.43;;
71513;SDS011;59335;46.652;21.272;2024-01-11T04:09:26;19.00;;;12.55;;
71513;SDS011;59335;46.652;21.272;2024-01-11T04:12:29;17.80;;;12.13;;
71513;SDS011;59335;46.652;21.272;2024-01-11T04:15:32;17.55;;;12.40;;
71513;SDS011;59335;46.652;21.272;2024-01-11T04:18:36;17.93;;;12.03;;
71513;SDS011;59335;46.652;21.272;2024-01-11T04:21:39;18.17;;;12.52;;
71513;SDS011;59335;46.652;21.272;2024-01-11T04:24:42;17.88;;;11.93;;
71513;SDS011;59335;46.652;21.272;2024-01-11T04:27:46;17.92;;;12.10;;
71513;SDS011;59335;46.652;21.272;2024-01-11T04:30:49;18.00;;;12.30;;
71513;SDS011;59335;46.652;21.272;2024-01-11T04:33:51;17.20;;;12.03;;
71513;SDS011;59335;46.652;21.272;2024-01-11T04:36:55;17.17;;;11.75;;
71513;SDS011;59335;46.652;21.272;2024-01-11T04:39:58;18.30;;;12.35;;
71513;SDS011;59335;46.652;21.272;2024-01-11T04:43:02;18.25;;;12.27;;
71513;SDS011;59335;46.652;21.272;2024-01-11T04:46:14;17.70;;;11.82;;
71513;SDS011;59335;46.652;21.272;2024-01-11T04:49:21;16.90;;;11.30;;
71513;SDS011;59335;46.652;21.272;2024-01-11T04:52:24;18.25;;;11.52;;
71513;SDS011;59335;46.652;21.272;2024-01-11T04:55:27;19.00;;;12.38;;
71513;SDS011;59335;46.652;21.272;2024-01-11T04:58:30;18.42;;;12.45;;
71513;SDS011;59335;46.652;21.272;2024-01-11T05:01:32;17.90;;;12.25;;
71513;SDS011;59335;46.652;21.272;2024-01-11T05:04:35;18.27;;;11.90;;
71513;SDS011;59335;46.652;21.272;2024-01-11T05:07:38;20.15;;;12.50;;
71513;SDS011;59335;46.652;21.272;2024-01-11T05:10:41;17.13;;;11.80;;
71513;SDS011;59335;46.652;21.272;2024-01-11T05:13:44;19.58;;;12.73;;
71513;SDS011;59335;46.652;21.272;2024-01-11T05:16:50;17.20;;;12.00;;
71513;SDS011;59335;46.652;21.272;2024-01-11T05:19:53;17.67;;;11.73;;
71513;SDS011;59335;46.652;21.272;2024-01-11T05:22:56;17.98;;;11.40;;
71513;SDS011;59335;46.652;21.272;2024-01-11T05:25:59;16.02;;;11.55;;
71513;SDS011;59335;46.652;21.272;2024-01-11T05:29:02;17.45;;;11.82;;
71513;SDS011;59335;46.652;21.272;2024-01-11T05:32:07;19.15;;;10.63;;
71513;SDS011;59335;46.652;21.272;2024-01-11T05:35:10;17.27;;;11.47;;
71513;SDS011;59335;46.652;21.272;2024-01-11T05:38:13;16.55;;;11.40;;
71513;SDS011;59335;46.652;21.272;2024-01-11T05:41:15;16.42;;;11.10;;
71513;SDS011;59335;46.652;21.272;2024-01-11T05:44:18;18.77;;;12.10;;
71513;SDS011;59335;46.652;21.272;2024-01-11T05:47:21;17.23;;;11.85;;
71513;SDS011;59335;46.652;21.272;2024-01-11T05:50:24;16.53;;;11.30;;
71513;SDS011;59335;46.652;21.272;2024-01-11T05:53:27;17.10;;;11.48;;
71513;SDS011;59335;46.652;21.272;2024-01-11T05:56:30;16.95;;;11.80;;
71513;SDS011;59335;46.652;21.272;2024-01-11T05:59:33;17.70;;;10.73;;
71513;SDS011;59335;46.652;21.272;2024-01-11T06:02:36;16.10;;;11.68;;
71513;SDS011;59335;46.652;21.272;2024-01-11T06:05:39;16.03;;;10.80;;
71513;SDS011;59335;46.652;21.272;2024-01-11T06:08:42;16.33;;;11.23;;
71513;SDS011;59335;46.652;21.272;2024-01-11T06:11:46;16.08;;;11.63;;
71513;SDS011;59335;46.652;21.272;2024-01-11T06:14:49;15.98;;;10.82;;
71513;SDS011;59335;46.652;21.272;2024-01-11T06:17:52;17.27;;;10.88;;
71513;SDS011;59335;46.652;21.272;2024-01-11T06:20:55;17.00;;;10.70;;
71513;SDS011;59335;46.652;21.272;2024-01-11T06:23:58;16.33;;;10.90;;
71513;SDS011;59335;46.652;21.272;2024-01-11T06:27:01;17.63;;;11.77;;
71513;SDS011;59335;46.652;21.272;2024-01-11T06:30:04;16.45;;;10.98;;
71513;SDS011;59335;46.652;21.272;2024-01-11T06:33:08;17.75;;;10.18;;
71513;SDS011;59335;46.652;21.272;2024-01-11T06:36:13;15.20;;;10.27;;
71513;SDS011;59335;46.652;21.272;2024-01-11T06:39:20;17.35;;;10.60;;
71513;SDS011;59335;46.652;21.272;2024-01-11T06:42:24;16.38;;;11.43;;
71513;SDS011;59335;46.652;21.272;2024-01-11T06:45:28;16.92;;;11.00;;
71513;SDS011;59335;46.652;21.272;2024-01-11T06:48:32;16.67;;;10.75;;
71513;SDS011;59335;46.652;21.272;2024-01-11T06:51:38;16.07;;;10.10;;
71513;SDS011;59335;46.652;21.272;2024-01-11T06:54:47;18.73;;;10.77;;
71513;SDS011;59335;46.652;21.272;2024-01-11T06:57:53;14.20;;;9.98;;
71513;SDS011;59335;46.652;21.272;2024-01-11T07:01:01;17.10;;;10.90;;
71513;SDS011;59335;46.652;21.272;2024-01-11T07:04:07;19.17;;;11.02;;
71513;SDS011;59335;46.652;21.272;2024-01-11T07:07:19;17.07;;;10.70;;
71513;SDS011;59335;46.652;21.272;2024-01-11T07:10:21;19.05;;;10.82;;
71513;SDS011;59335;46.652;21.272;2024-01-11T07:13:25;20.42;;;10.68;;
71513;SDS011;59335;46.652;21.272;2024-01-11T07:16:29;15.93;;;10.38;;
71513;SDS011;59335;46.652;21.272;2024-01-11T07:19:33;17.20;;;10.73;;
71513;SDS011;59335;46.652;21.272;2024-01-11T07:22:36;18.70;;;10.50;;
71513;SDS011;59335;46.652;21.272;2024-01-11T07:25:43;17.42;;;10.73;;
71513;SDS011;59335;46.652;21.272;2024-01-11T07:28:46;14.98;;;9.30;;
71513;SDS011;59335;46.652;21.272;2024-01-11T07:31:51;18.05;;;10.30;;
71513;SDS011;59335;46.652;21.272;2024-01-11T07:34:55;18.83;;;10.52;;
71513;SDS011;59335;46.652;21.272;2024-01-11T07:38:05;17.33;;;10.13;;
71513;SDS011;59335;46.652;21.272;2024-01-11T07:41:08;15.98;;;10.00;;
71513;SDS011;59335;46.652;21.272;2024-01-11T07:44:11;17.70;;;10.07;;
71513;SDS011;59335;46.652;21.272;2024-01-11T07:47:13;15.52;;;10.43;;
71513;SDS011;59335;46.652;21.272;2024-01-11T07:50:16;19.20;;;10.80;;
71513;SDS011;59335;46.652;21.272;2024-01-11T07:53:24;20.00;;;10.70;;
71513;SDS011;59335;46.652;21.272;2024-01-11T07:56:31;19.35;;;10.23;;
71513;SDS011;59335;46.652;21.272;2024-01-11T07:59:34;17.00;;;10.38;;
71513;SDS011;59335;46.652;21.272;2024-01-11T08:02:49;18.50;;;10.48;;
71513;SDS011;59335;46.652;21.272;2024-01-11T08:05:53;18.13;;;9.75;;
71513;SDS011;59335;46.652;21.272;2024-01-11T08:08:58;21.73;;;10.23;;
71513;SDS011;59335;46.652;21.272;2024-01-11T08:12:02;19.58;;;10.15;;
71513;SDS011;59335;46.652;21.272;2024-01-11T08:15:09;18.83;;;10.77;;
71513;SDS011;59335;46.652;21.272;2024-01-11T08:18:18;16.42;;;9.93;;
71513;SDS011;59335;46.652;21.272;2024-01-11T08:21:24;16.52;;;9.98;;
71513;SDS011;59335;46.652;21.272;2024-01-11T08:24:26;16.87;;;9.70;;
71513;SDS011;59335;46.652;21.272;2024-01-11T08:27:29;19.63;;;10.32;;
71513;SDS011;59335;46.652;21.272;2024-01-11T08:30:34;15.75;;;9.85;;
71513;SDS011;59335;46.652;21.272;2024-01-11T08:33:39;17.80;;;10.35;;
71513;SDS011;59335;46.652;21.272;2024-01-11T08:36:43;15.13;;;9.75;;
71513;SDS011;59335;46.652;21.272;2024-01-11T08:39:47;15.97;;;9.50;;
71513;SDS011;59335;46.652;21.272;2024-01-11T08:42:51;16.17;;;9.73;;
71513;SDS011;59335;46.652;21.272;2024-01-11T08:45:54;13.70;;;9.35;;
71513;SDS011;59335;46.652;21.272;2024-01-11T08:48:59;17.77;;;10.20;;
71513;SDS011;59335;46.652;21.272;2024-01-11T08:52:09;18.90;;;10.00;;
71513;SDS011;59335;46.652;21.272;2024-01-11T08:55:12;15.30;;;9.67;;
71513;SDS011;59335;46.652;21.272;2024-01-11T08:58:16;18.75;;;9.98;;
71513;SDS011;59335;46.652;21.272;2024-01-11T09:01:19;17.42;;;10.20;;
71513;SDS011;59335;46.652;21.272;2024-01-11T09:04:29;18.25;;;10.00;;
71513;SDS011;59335;46.652;21.272;2024-01-11T09:07:32;17.17;;;9.70;;
71513;SDS011;59335;46.652;21.272;2024-01-11T09:10:40;18.23;;;9.60;;
71513;SDS011;59335;46.652;21.272;2024-01-11T09:13:44;16.65;;;9.55;;
71513;SDS011;59335;46.652;21.272;2024-01-11T09:16:48;16.48;;;9.25;;
71513;SDS011;59335;46.652;21.272;2024-01-11T09:19:52;17.30;;;10.25;;
71513;SDS011;59335;46.652;21.272;2024-01-11T09:22:55;16.95;;;9.82;;
71513;SDS011;59335;46.652;21.272;2024-01-11T09:25:58;17.53;;;9.97;;
71513;SDS011;59335;46.652;21.272;2024-01-11T09:29:01;16.75;;;8.95;;
71513;SDS011;59335;46.652;21.272;2024-01-11T09:32:05;15.68;;;9.23;;
71513;SDS011;59335;46.652;21.272;2024-01-11T09:35:08;21.17;;;10.15;;
71513;SDS011;59335;46.652;21.272;2024-01-11T09:38:14;17.13;;;9.75;;
71513;SDS011;59335;46.652;21.272;2024-01-11T09:41:17;16.37;;;9.40;;
71513;SDS011;59335;46.652;21.272;2024-01-11T09:44:21;15.13;;;9.32;;
71513;SDS011;59335;46.652;21.272;2024-01-11T09:47:25;18.17;;;9.48;;
71513;SDS011;59335;46.652;21.272;2024-01-11T09:50:29;17.30;;;9.45;;
71513;SDS011;59335;46.652;21.272;2024-01-11T09:53:35;16.83;;;9.82;;
71513;SDS011;59335;46.652;21.272;2024-01-11T09:56:50;16.80;;;9.60;;
71513;SDS011;59335;46.652;21.272;2024-01-11T09:59:57;19.95;;;10.20;;
71513;SDS011;59335;46.652;21.272;2024-01-11T10:03:06;22.23;;;11.25;;
71513;SDS011;59335;46.652;21.272;2024-01-11T10:06:12;21.88;;;11.05;;
71513;SDS011;59335;46.652;21.272;2024-01-11T10:09:18;18.45;;;10.48;;
71513;SDS011;59335;46.652;21.272;2024-01-11T10:12:21;22.60;;;11.20;;
71513;SDS011;59335;46.652;21.272;2024-01-11T10:15:28;16.48;;;10.15;;
71513;SDS011;59335;46.652;21.272;2024-01-11T10:18:30;18.85;;;10.27;;
71513;SDS011;59335;46.652;21.272;2024-01-11T10:21:33;18.77;;;10.40;;
71513;SDS011;59335;46.652;21.272;2024-01-11T10:24:42;17.77;;;10.52;;
71513;SDS011;59335;46.652;21.272;2024-01-11T10:27:46;19.93;;;10.00;;
71513;SDS011;59335;46.652;21.272;2024-01-11T10:30:50;19.63;;;9.85;;
71513;SDS011;59335;46.652;21.272;2024-01-11T10:33:55;23.17;;;10.50;;
71513;SDS011;59335;46.652;21.272;2024-01-11T10:36:59;19.17;;;10.32;;
71513;SDS011;59335;46.652;21.272;2024-01-11T10:40:03;19.35;;;11.07;;
71513;SDS011;59335;46.652;21.272;2024-01-11T10:43:12;17.40;;;9.37;;
71513;SDS011;59335;46.652;21.272;2024-01-11T10:46:22;17.73;;;10.57;;
71513;SDS011;59335;46.652;21.272;2024-01-11T10:49:28;18.17;;;10.45;;
71513;SDS011;59335;46.652;21.272;2024-01-11T10:52:36;22.58;;;10.45;;
71513;SDS011;59335;46.652;21.272;2024-01-11T10:55:46;17.58;;;10.27;;
71513;SDS011;59335;46.652;21.272;2024-01-11T10:58:51;18.00;;;10.30;;
71513;SDS011;59335;46.652;21.272;2024-01-11T11:01:57;19.45;;;10.55;;
71513;SDS011;59335;46.652;21.272;2024-01-11T11:05:04;20.27;;;10.30;;
71513;SDS011;59335;46.652;21.272;2024-01-11T11:08:12;16.38;;;10.05;;
71513;SDS011;59335;46.652;21.272;2024-01-11T11:11:16;19.58;;;10.68;;
71513;SDS011;59335;46.652;21.272;2024-01-11T11:14:20;16.97;;;9.87;;
71513;SDS011;59335;46.652;21.272;2024-01-11T11:17:24;16.63;;;10.10;;
71513;SDS011;59335;46.652;21.272;2024-01-11T11:20:32;21.85;;;10.32;;
71513;SDS011;59335;46.652;21.272;2024-01-11T11:23:35;17.98;;;10.10;;
71513;SDS011;59335;46.652;21.272;2024-01-11T11:26:38;17.83;;;10.15;;
71513;SDS011;59335;46.652;21.272;2024-01-11T11:29:41;21.13;;;10.20;;
71513;SDS011;59335;46.652;21.272;2024-01-11T11:32:44;21.95;;;10.65;;
71513;SDS011;59335;46.652;21.272;2024-01-11T11:35:48;19.77;;;9.93;;
71513;SDS011;59335;46.652;21.272;2024-01-11T11:38:55;20.13;;;10.02;;
71513;SDS011;59335;46.652;21.272;2024-01-11T11:42:03;15.50;;;9.98;;
71513;SDS011;59335;46.652;21.272;2024-01-11T11:45:07;20.37;;;10.00;;
71513;SDS011;59335;46.652;21.272;2024-01-11T11:51:42;17.58;;;9.68;;
71513;SDS011;59335;46.652;21.272;2024-01-11T11:54:46;15.85;;;9.45;;
71513;SDS011;59335;46.652;21.272;2024-01-11T11:57:49;18.13;;;10.13;;
71513;SDS011;59335;46.652;21.272;2024-01-11T12:00:53;21.93;;;11.13;;
71513;SDS011;59335;46.652;21.272;2024-01-11T12:03:58;18.05;;;10.73;;
71513;SDS011;59335;46.652;21.272;2024-01-11T12:07:01;17.52;;;10.35;;
71513;SDS011;59335;46.652;21.272;2024-01-11T12:10:08;17.55;;;10.35;;
71513;SDS011;59335;46.652;21.272;2024-01-11T12:13:12;18.30;;;9.63;;
71513;SDS011;59335;46.652;21.272;2024-01-11T12:16:15;20.93;;;10.40;;
71513;SDS011;59335;46.652;21.272;2024-01-11T12:19:19;22.90;;;10.50;;
71513;SDS011;59335;46.652;21.272;2024-01-11T12:22:25;19.88;;;10.82;;
71513;SDS011;59335;46.652;21.272;2024-01-11T12:25:29;22.95;;;10.60;;
71513;SDS011;59335;46.652;21.272;2024-01-11T12:28:35;18.17;;;10.25;;
71513;SDS011;59335;46.652;21.272;2024-01-11T12:31:39;18.60;;;9.80;;
71513;SDS011;59335;46.652;21.272;2024-01-11T12:34:42;20.70;;;10.25;;
71513;SDS011;59335;46.652;21.272;2024-01-11T12:37:58;19.13;;;10.10;;
71513;SDS011;59335;46.652;21.272;2024-01-11T12:41:01;20.15;;;10.45;;
71513;SDS011;59335;46.652;21.272;2024-01-11T12:44:06;18.52;;;10.20;;
71513;SDS011;59335;46.652;21.272;2024-01-11T12:47:09;20.53;;;10.00;;
71513;SDS011;59335;46.652;21.272;2024-01-11T12:50:12;18.50;;;10.30;;
71513;SDS011;59335;46.652;21.272;2024-01-11T12:53:15;17.67;;;10.18;;
71513;SDS011;59335;46.652;21.272;2024-01-11T12:56:21;16.85;;;9.95;;
71513;SDS011;59335;46.652;21.272;2024-01-11T12:59:27;20.27;;;10.32;;
71513;SDS011;59335;46.652;21.272;2024-01-11T13:02:31;20.13;;;9.83;;
71513;SDS011;59335;46.652;21.272;2024-01-11T13:05:37;19.83;;;10.25;;
71513;SDS011;59335;46.652;21.272;2024-01-11T13:08:43;21.15;;;9.85;;
71513;SDS011;59335;46.652;21.272;2024-01-11T13:11:46;20.42;;;10.35;;
71513;SDS011;59335;46.652;21.272;2024-01-11T13:14:48;18.00;;;10.02;;
71513;SDS011;59335;46.652;21.272;2024-01-11T13:17:53;18.13;;;10.13;;
71513;SDS011;59335;46.652;21.272;2024-01-11T13:20:56;18.55;;;10.35;;
71513;SDS011;59335;46.652;21.272;2024-01-11T13:23:59;22.85;;;9.82;;
71513;SDS011;59335;46.652;21.272;2024-01-11T13:27:02;18.77;;;10.23;;
71513;SDS011;59335;46.652;21.272;2024-01-11T13:30:05;17.65;;;10.07;;
71513;SDS011;59335;46.652;21.272;2024-01-11T13:33:11;17.40;;;9.87;;
71513;SDS011;59335;46.652;21.272;2024-01-11T13:36:15;18.90;;;9.65;;
71513;SDS011;59335;46.652;21.272;2024-01-11T13:39:17;18.45;;;9.98;;
71513;SDS011;59335;46.652;21.272;2024-01-11T13:42:21;19.88;;;9.73;;
71513;SDS011;59335;46.652;21.272;2024-01-11T13:45:26;20.08;;;10.18;;
71513;SDS011;59335;46.652;21.272;2024-01-11T13:48:32;19.90;;;9.90;;
71513;SDS011;59335;46.652;21.272;2024-01-11T13:51:35;17.23;;;10.00;;
71513;SDS011;59335;46.652;21.272;2024-01-11T13:54:56;16.77;;;10.00;;
71513;SDS011;59335;46.652;21.272;2024-01-11T13:58:00;20.58;;;10.40;;
71513;SDS011;59335;46.652;21.272;2024-01-11T14:01:04;18.92;;;9.95;;
71513;SDS011;59335;46.652;21.272;2024-01-11T14:04:07;19.33;;;10.27;;
71513;SDS011;59335;46.652;21.272;2024-01-11T14:07:09;18.63;;;10.35;;
71513;SDS011;59335;46.652;21.272;2024-01-11T14:10:15;18.70;;;9.82;;
71513;SDS011;59335;46.652;21.272;2024-01-11T14:13:18;16.63;;;9.57;;
71513;SDS011;59335;46.652;21.272;2024-01-11T14:16:20;19.10;;;10.38;;
71513;SDS011;59335;46.652;21.272;2024-01-11T14:19:26;21.23;;;10.10;;
71513;SDS011;59335;46.652;21.272;2024-01-11T14:22:30;18.38;;;9.90;;
71513;SDS011;59335;46.652;21.272;2024-01-11T14:25:33;17.80;;;10.20;;
71513;SDS011;59335;46.652;21.272;2024-01-11T14:28:37;19.25;;;9.45;;
71513;SDS011;59335;46.652;21.272;2024-01-11T14:31:45;20.05;;;10.27;;
71513;SDS011;59335;46.652;21.272;2024-01-11T14:34:48;20.90;;;10.00;;
71513;SDS011;59335;46.652;21.272;2024-01-11T14:37:51;19.30;;;10.57;;
71513;SDS011;59335;46.652;21.272;2024-01-11T14:40:55;19.88;;;9.70;;
71513;SDS011;59335;46.652;21.272;2024-01-11T14:43:59;19.48;;;9.80;;
71513;SDS011;59335;46.652;21.272;2024-01-11T14:47:07;19.42;;;10.02;;
71513;SDS011;59335;46.652;21.272;2024-01-11T14:50:10;18.67;;;9.50;;
71513;SDS011;59335;46.652;21.272;2024-01-11T14:53:14;18.77;;;9.75;;
71513;SDS011;59335;46.652;21.272;2024-01-11T14:56:17;19.80;;;9.40;;
71513;SDS011;59335;46.652;21.272;2024-01-11T14:59:19;18.83;;;9.65;;
71513;SDS011;59335;46.652;21.272;2024-01-11T15:02:23;19.63;;;10.23;;
71513;SDS011;59335;46.652;21.272;2024-01-11T15:05:26;19.30;;;9.97;;
71513;SDS011;59335;46.652;21.272;2024-01-11T15:08:29;20.38;;;9.13;;
71513;SDS011;59335;46.652;21.272;2024-01-11T15:11:33;19.20;;;9.95;;
71513;SDS011;59335;46.652;21.272;2024-01-11T15:14:38;16.42;;;9.55;;
71513;SDS011;59335;46.652;21.272;2024-01-11T15:17:42;17.63;;;10.40;;
71513;SDS011;59335;46.652;21.272;2024-01-11T15:20:45;20.13;;;10.00;;
71513;SDS011;59335;46.652;21.272;2024-01-11T15:23:47;17.50;;;10.10;;
71513;SDS011;59335;46.652;21.272;2024-01-11T15:26:51;18.25;;;10.40;;
71513;SDS011;59335;46.652;21.272;2024-01-11T15:29:54;19.88;;;10.02;;
71513;SDS011;59335;46.652;21.272;2024-01-11T15:32:57;19.20;;;10.32;;
71513;SDS011;59335;46.652;21.272;2024-01-11T15:36:04;18.27;;;10.20;;
71513;SDS011;59335;46.652;21.272;2024-01-11T15:39:08;16.17;;;9.68;;
71513;SDS011;59335;46.652;21.272;2024-01-11T15:42:28;18.85;;;10.38;;
71513;SDS011;59335;46.652;21.272;2024-01-11T15:45:30;15.52;;;9.65;;
71513;SDS011;59335;46.652;21.272;2024-01-11T15:48:36;18.67;;;10.57;;
71513;SDS011;59335;46.652;21.272;2024-01-11T15:51:39;19.83;;;10.77;;
71513;SDS011;59335;46.652;21.272;2024-01-11T15:54:42;21.10;;;11.10;;
71513;SDS011;59335;46.652;21.272;2024-01-11T15:57:45;92.57;;;14.95;;
71513;SDS011;59335;46.652;21.272;2024-01-11T16:00:48;63.47;;;13.27;;
71513;SDS011;59335;46.652;21.272;2024-01-11T16:03:51;77.30;;;15.00;;
71513;SDS011;59335;46.652;21.272;2024-01-11T16:06:55;40.33;;;12.73;;
71513;SDS011;59335;46.652;21.272;2024-01-11T16:09:59;42.15;;;12.07;;
71513;SDS011;59335;46.652;21.272;2024-01-11T16:13:01;37.60;;;11.73;;
71513;SDS011;59335;46.652;21.272;2024-01-11T16:16:05;34.17;;;11.48;;
71513;SDS011;59335;46.652;21.272;2024-01-11T16:19:08;41.85;;;12.20;;
71513;SDS011;59335;46.652;21.272;2024-01-11T16:22:12;35.87;;;11.57;;
71513;SDS011;59335;46.652;21.272;2024-01-11T16:25:15;32.83;;;11.32;;
71513;SDS011;59335;46.652;21.272;2024-01-11T16:28:18;30.55;;;11.40;;
71513;SDS011;59335;46.652;21.272;2024-01-11T16:31:21;35.13;;;11.95;;
71513;SDS011;59335;46.652;21.272;2024-01-11T16:34:27;33.80;;;11.68;;
71513;SDS011;59335;46.652;21.272;2024-01-11T16:37:31;29.40;;;11.43;;
71513;SDS011;59335;46.652;21.272;2024-01-11T16:40:33;33.10;;;11.57;;
71513;SDS011;59335;46.652;21.272;2024-01-11T16:43:36;35.85;;;11.65;;
71513;SDS011;59335;46.652;21.272;2024-01-11T16:46:39;29.85;;;11.65;;
71513;SDS011;59335;46.652;21.272;2024-01-11T16:49:42;34.15;;;11.35;;
71513;SDS011;59335;46.652;21.272;2024-01-11T16:52:47;32.83;;;11.93;;
71513;SDS011;59335;46.652;21.272;2024-01-11T16:55:50;28.95;;;12.10;;
71513;SDS011;59335;46.652;21.272;2024-01-11T16:58:53;29.98;;;11.35;;
71513;SDS011;59335;46.652;21.272;2024-01-11T17:01:57;28.08;;;11.05;;
71513;SDS011;59335;46.652;21.272;2024-01-11T17:05:00;26.20;;;12.00;;
71513;SDS011;59335;46.652;21.272;2024-01-11T17:08:02;27.23;;;12.10;;
71513;SDS011;59335;46.652;21.272;2024-01-11T17:11:07;26.20;;;11.25;;
71513;SDS011;59335;46.652;21.272;2024-01-11T17:14:10;28.30;;;11.68;;
71513;SDS011;59335;46.652;21.272;2024-01-11T17:17:12;24.95;;;10.85;;
71513;SDS011;59335;46.652;21.272;2024-01-11T17:20:15;27.33;;;12.10;;
71513;SDS011;59335;46.652;21.272;2024-01-11T17:23:20;22.63;;;11.13;;
71513;SDS011;59335;46.652;21.272;2024-01-11T17:26:23;27.38;;;11.60;;
71513;SDS011;59335;46.652;21.272;2024-01-11T17:29:26;24.65;;;11.38;;
71513;SDS011;59335;46.652;21.272;2024-01-11T17:32:30;31.77;;;11.98;;
71513;SDS011;59335;46.652;21.272;2024-01-11T17:35:33;26.67;;;11.10;;
71513;SDS011;59335;46.652;21.272;2024-01-11T17:38:35;24.33;;;11.37;;
71513;SDS011;59335;46.652;21.272;2024-01-11T17:41:38;23.98;;;11.45;;
71513;SDS011;59335;46.652;21.272;2024-01-11T17:44:45;26.65;;;11.73;;
71513;SDS011;59335;46.652;21.272;2024-01-11T17:47:47;25.17;;;11.43;;